VIV4200 MMMY-MMQT
Flight info
| Callsign | VIV4200 |
|---|---|
| Flight time | 0h 55m |
| Altitude | 35000 |
| Route | URTOB1A URTOB UJ11 BEROS UJ31 SLP UJ45 QET |
| Aircraft | A320/M-SDE3FGHIRWY/LB1 |
Departure
| Time | 2026-04-27 10:08 |
|---|---|
| Airport | Monterrey International Airport (MMMY) |
Arrival
| Time | 2026-04-27 11:03 |
|---|---|
| Airport | Querétaro Intercontinental Airport (MMQT) |
| Time | Latitude | Longitude | Altitude | Speed | Heading |
|---|---|---|---|---|---|
| 2026-04-27 09:50 | 25.78021 | -100.11785 | 1331 ft | 0 kts | 212° |
| 2026-04-27 10:01 | 25.78026 | -100.11781 | 1331 ft | 4 kts | 212° |
| 2026-04-27 10:01 | 25.78049 | -100.11766 | 1321 ft | 4 kts | 226° |
| 2026-04-27 10:01 | 25.78060 | -100.11742 | 1340 ft | 4 kts | 272° |
| 2026-04-27 10:01 | 25.78056 | -100.11722 | 1334 ft | 1 kts | 300° |
| 2026-04-27 10:02 | 25.78054 | -100.11719 | 1334 ft | 0 kts | 300° |
| 2026-04-27 10:04 | 25.78058 | -100.11726 | 1334 ft | 2 kts | 300° |
| 2026-04-27 10:04 | 25.78067 | -100.11744 | 1340 ft | 4 kts | 300° |
| 2026-04-27 10:04 | 25.78092 | -100.11755 | 1331 ft | 5 kts | 1° |
| 2026-04-27 10:04 | 25.78116 | -100.11729 | 1331 ft | 6 kts | 77° |
| 2026-04-27 10:05 | 25.78123 | -100.11682 | 1333 ft | 7 kts | 49° |
| 2026-04-27 10:05 | 25.78168 | -100.11684 | 1332 ft | 8 kts | 314° |
| 2026-04-27 10:05 | 25.78200 | -100.11740 | 1331 ft | 9 kts | 297° |
| 2026-04-27 10:05 | 25.78244 | -100.11798 | 1331 ft | 11 kts | 342° |
| 2026-04-27 10:06 | 25.78314 | -100.11771 | 1331 ft | 11 kts | 28° |
| 2026-04-27 10:06 | 25.78384 | -100.11724 | 1331 ft | 12 kts | 45° |
| 2026-04-27 10:06 | 25.78369 | -100.11639 | 1333 ft | 2 kts | 121° |
| 2026-04-27 10:07 | 25.78361 | -100.11624 | 1331 ft | 15 kts | 122° |
| 2026-04-27 10:08 | 25.78141 | -100.11220 | 1331 ft | 104 kts | 121° |
| 2026-04-27 10:08 | 25.77650 | -100.10321 | 1331 ft | 168 kts | 121° |
| 2026-04-27 10:08 | 25.77002 | -100.09135 | 1911 ft | 183 kts | 121° |
| 2026-04-27 10:08 | 25.76331 | -100.07904 | 2692 ft | 185 kts | 121° |
| 2026-04-27 10:09 | 25.75678 | -100.06640 | 3102 ft | 197 kts | 120° |
| 2026-04-27 10:09 | 25.74975 | -100.05235 | 3278 ft | 221 kts | 120° |
| 2026-04-27 10:09 | 25.74192 | -100.03662 | 3539 ft | 245 kts | 120° |
| 2026-04-27 10:09 | 25.73328 | -100.01934 | 3975 ft | 264 kts | 120° |
| 2026-04-27 10:10 | 25.72426 | -100.00136 | 4755 ft | 268 kts | 120° |
| 2026-04-27 10:10 | 25.71526 | -99.98356 | 5568 ft | 269 kts | 121° |
| 2026-04-27 10:10 | 25.70590 | -99.96549 | 6328 ft | 271 kts | 126° |
| 2026-04-27 10:10 | 25.69261 | -99.95104 | 6983 ft | 270 kts | 151° |
| 2026-04-27 10:11 | 25.67474 | -99.94495 | 7627 ft | 273 kts | 178° |
| 2026-04-27 10:11 | 25.65612 | -99.94902 | 8270 ft | 279 kts | 205° |
| 2026-04-27 10:11 | 25.64073 | -99.96232 | 8920 ft | 286 kts | 224° |
| 2026-04-27 10:11 | 25.62768 | -99.97911 | 9606 ft | 290 kts | 231° |
| 2026-04-27 10:12 | 25.61614 | -99.99782 | 10072 ft | 303 kts | 237° |
| 2026-04-27 10:12 | 25.60604 | -100.01888 | 10197 ft | 325 kts | 244° |
| 2026-04-27 10:12 | 25.59770 | -100.04305 | 10317 ft | 347 kts | 251° |
| 2026-04-27 10:12 | 25.59197 | -100.06975 | 10435 ft | 366 kts | 259° |
| 2026-04-27 10:13 | 25.58952 | -100.09827 | 10739 ft | 377 kts | 267° |
| 2026-04-27 10:13 | 25.59072 | -100.12745 | 11239 ft | 381 kts | 275° |
| 2026-04-27 10:13 | 25.59547 | -100.15647 | 11793 ft | 384 kts | 281° |
| 2026-04-27 10:13 | 25.59892 | -100.18577 | 12369 ft | 384 kts | 271° |
| 2026-04-27 10:14 | 25.59733 | -100.21522 | 12959 ft | 384 kts | 260° |
| 2026-04-27 10:14 | 25.59002 | -100.24321 | 13540 ft | 385 kts | 247° |
| 2026-04-27 10:14 | 25.57675 | -100.26894 | 14053 ft | 387 kts | 232° |
| 2026-04-27 10:14 | 25.55815 | -100.29042 | 14591 ft | 388 kts | 219° |
| 2026-04-27 10:15 | 25.53679 | -100.30877 | 15112 ft | 390 kts | 218° |
| 2026-04-27 10:15 | 25.51534 | -100.32727 | 15640 ft | 392 kts | 219° |
| 2026-04-27 10:15 | 25.49386 | -100.34596 | 16162 ft | 394 kts | 219° |
| 2026-04-27 10:15 | 25.47232 | -100.36478 | 16665 ft | 396 kts | 219° |
| 2026-04-27 10:16 | 25.45084 | -100.38355 | 17176 ft | 397 kts | 219° |
| 2026-04-27 10:16 | 25.42904 | -100.40258 | 17681 ft | 400 kts | 219° |
| 2026-04-27 10:16 | 25.40738 | -100.42148 | 18706 ft | 405 kts | 218° |
| 2026-04-27 10:16 | 25.38509 | -100.44089 | 18370 ft | 409 kts | 221° |
| 2026-04-27 10:17 | 25.36275 | -100.46031 | 18935 ft | 408 kts | 221° |
| 2026-04-27 10:17 | 25.34039 | -100.47969 | 19418 ft | 409 kts | 221° |
| 2026-04-27 10:17 | 25.31795 | -100.49913 | 19869 ft | 411 kts | 221° |
| 2026-04-27 10:17 | 25.29534 | -100.51864 | 20302 ft | 414 kts | 221° |
| 2026-04-27 10:18 | 25.27258 | -100.53824 | 20757 ft | 416 kts | 221° |
| 2026-04-27 10:18 | 25.24971 | -100.55794 | 21197 ft | 418 kts | 221° |
| 2026-04-27 10:18 | 25.22669 | -100.57778 | 21589 ft | 421 kts | 221° |
| 2026-04-27 10:18 | 25.20384 | -100.59747 | 22011 ft | 423 kts | 221° |
| 2026-04-27 10:19 | 25.18078 | -100.61734 | 23248 ft | 423 kts | 219° |
| 2026-04-27 10:19 | 25.15740 | -100.63747 | 22660 ft | 428 kts | 221° |
| 2026-04-27 10:19 | 25.13391 | -100.65767 | 23093 ft | 429 kts | 221° |
| 2026-04-27 10:19 | 25.11035 | -100.67791 | 23490 ft | 430 kts | 221° |
| 2026-04-27 10:20 | 25.08669 | -100.69827 | 23808 ft | 432 kts | 221° |
| 2026-04-27 10:20 | 25.06293 | -100.71869 | 24133 ft | 434 kts | 221° |
| 2026-04-27 10:20 | 25.03910 | -100.73915 | 24453 ft | 435 kts | 221° |
| 2026-04-27 10:20 | 25.01548 | -100.75940 | 24776 ft | 436 kts | 221° |
| 2026-04-27 10:21 | 24.99149 | -100.77997 | 25099 ft | 438 kts | 221° |
| 2026-04-27 10:21 | 24.96739 | -100.80063 | 25410 ft | 440 kts | 222° |
| 2026-04-27 10:21 | 24.94317 | -100.82135 | 25742 ft | 441 kts | 221° |
| 2026-04-27 10:21 | 24.91890 | -100.84210 | 26035 ft | 443 kts | 221° |
| 2026-04-27 10:22 | 24.89450 | -100.86298 | 26364 ft | 444 kts | 221° |
| 2026-04-27 10:22 | 24.87016 | -100.88382 | 26825 ft | 443 kts | 222° |
| 2026-04-27 10:22 | 24.84515 | -100.90355 | 27294 ft | 445 kts | 215° |
| 2026-04-27 10:22 | 24.81753 | -100.91825 | 27769 ft | 450 kts | 205° |
| 2026-04-27 10:23 | 24.78721 | -100.92729 | 28249 ft | 456 kts | 194° |
| 2026-04-27 10:23 | 24.76073 | -100.93006 | 28634 ft | 461 kts | 186° |
| 2026-04-27 10:23 | 24.72860 | -100.93015 | 29086 ft | 461 kts | 185° |
| 2026-04-27 10:23 | 24.69680 | -100.93013 | 29563 ft | 460 kts | 185° |
| 2026-04-27 10:24 | 24.66766 | -100.93008 | 30006 ft | 459 kts | 186° |
| 2026-04-27 10:24 | 24.63576 | -100.93003 | 30420 ft | 458 kts | 186° |
| 2026-04-27 10:24 | 24.60393 | -100.93000 | 30807 ft | 457 kts | 186° |
| 2026-04-27 10:24 | 24.57212 | -100.93000 | 31184 ft | 457 kts | 186° |
| 2026-04-27 10:25 | 24.54075 | -100.92999 | 31548 ft | 457 kts | 186° |
| 2026-04-27 10:25 | 24.50894 | -100.93000 | 31935 ft | 457 kts | 186° |
| 2026-04-27 10:25 | 24.47720 | -100.93004 | 32314 ft | 456 kts | 186° |
| 2026-04-27 10:25 | 24.44544 | -100.93005 | 32701 ft | 456 kts | 186° |
| 2026-04-27 10:26 | 24.41371 | -100.93008 | 33098 ft | 456 kts | 186° |
| 2026-04-27 10:26 | 24.38205 | -100.93010 | 33499 ft | 455 kts | 186° |
| 2026-04-27 10:26 | 24.35037 | -100.93011 | 33912 ft | 455 kts | 186° |
| 2026-04-27 10:26 | 24.31877 | -100.93013 | 34254 ft | 454 kts | 186° |
| 2026-04-27 10:27 | 24.28760 | -100.93013 | 34575 ft | 454 kts | 186° |
| 2026-04-27 10:27 | 24.25601 | -100.93011 | 34862 ft | 454 kts | 186° |
| 2026-04-27 10:27 | 24.19231 | -100.93016 | 34964 ft | 464 kts | 187° |
| 2026-04-27 10:28 | 24.12734 | -100.93025 | 34967 ft | 468 kts | 186° |
| 2026-04-27 10:28 | 24.06215 | -100.93023 | 34963 ft | 469 kts | 186° |
| 2026-04-27 10:29 | 23.99735 | -100.93013 | 34961 ft | 469 kts | 186° |
| 2026-04-27 10:29 | 23.93207 | -100.93017 | 34974 ft | 469 kts | 186° |
| 2026-04-27 10:30 | 23.86671 | -100.93023 | 34977 ft | 470 kts | 186° |
| 2026-04-27 10:30 | 23.80134 | -100.93021 | 34980 ft | 470 kts | 186° |
| 2026-04-27 10:31 | 23.73638 | -100.93026 | 34987 ft | 470 kts | 186° |
| 2026-04-27 10:31 | 23.67095 | -100.93024 | 34977 ft | 470 kts | 186° |
| 2026-04-27 10:32 | 23.60558 | -100.93013 | 34990 ft | 470 kts | 186° |
| 2026-04-27 10:32 | 23.54020 | -100.93004 | 34993 ft | 470 kts | 186° |
| 2026-04-27 10:33 | 23.47524 | -100.92998 | 35001 ft | 470 kts | 186° |
| 2026-04-27 10:33 | 23.40988 | -100.92989 | 35002 ft | 470 kts | 186° |
| 2026-04-27 10:34 | 23.34453 | -100.92993 | 34988 ft | 470 kts | 186° |
| 2026-04-27 10:34 | 23.27917 | -100.92992 | 34994 ft | 470 kts | 186° |
| 2026-04-27 10:35 | 23.21384 | -100.92997 | 35006 ft | 470 kts | 186° |
| 2026-04-27 10:35 | 23.14891 | -100.92994 | 35009 ft | 470 kts | 186° |
| 2026-04-27 10:36 | 23.08355 | -100.92996 | 35006 ft | 469 kts | 186° |
| 2026-04-27 10:36 | 23.01830 | -100.93004 | 34994 ft | 469 kts | 186° |
| 2026-04-27 10:37 | 22.95290 | -100.93005 | 34989 ft | 470 kts | 186° |
| 2026-04-27 10:37 | 22.88790 | -100.93009 | 34992 ft | 471 kts | 186° |
| 2026-04-27 10:38 | 22.82241 | -100.93020 | 34995 ft | 471 kts | 186° |
| 2026-04-27 10:38 | 22.75686 | -100.93025 | 34996 ft | 471 kts | 186° |
| 2026-04-27 10:39 | 22.69135 | -100.93029 | 34978 ft | 471 kts | 185° |
| 2026-04-27 10:39 | 22.62612 | -100.93031 | 34976 ft | 472 kts | 185° |
| 2026-04-27 10:40 | 22.56035 | -100.93031 | 34978 ft | 473 kts | 185° |
| 2026-04-27 10:40 | 22.49449 | -100.93035 | 35083 ft | 473 kts | 185° |
| 2026-04-27 10:41 | 22.42861 | -100.93036 | 35146 ft | 474 kts | 185° |
| 2026-04-27 10:41 | 22.36269 | -100.93041 | 35189 ft | 474 kts | 185° |
| 2026-04-27 10:42 | 22.29710 | -100.93036 | 35209 ft | 475 kts | 184° |
| 2026-04-27 10:42 | 22.23131 | -100.91842 | 35211 ft | 487 kts | 165° |
| 2026-04-27 10:43 | 22.16834 | -100.89037 | 35204 ft | 490 kts | 161° |
| 2026-04-27 10:43 | 22.10542 | -100.86173 | 35148 ft | 491 kts | 161° |
| 2026-04-27 10:44 | 22.04287 | -100.83351 | 35076 ft | 491 kts | 161° |
| 2026-04-27 10:44 | 21.97985 | -100.80499 | 35017 ft | 491 kts | 161° |
| 2026-04-27 10:45 | 21.91687 | -100.77637 | 34959 ft | 491 kts | 161° |
| 2026-04-27 10:45 | 21.85387 | -100.74779 | 34961 ft | 491 kts | 161° |
| 2026-04-27 10:46 | 21.79122 | -100.71953 | 34951 ft | 491 kts | 161° |
| 2026-04-27 10:46 | 21.72815 | -100.69114 | 34952 ft | 491 kts | 161° |
| 2026-04-27 10:47 | 21.66508 | -100.66274 | 34946 ft | 491 kts | 161° |
| 2026-04-27 10:47 | 21.60205 | -100.63430 | 34949 ft | 491 kts | 161° |
| 2026-04-27 10:48 | 21.53945 | -100.60610 | 34936 ft | 491 kts | 161° |
| 2026-04-27 10:48 | 21.47644 | -100.57766 | 34871 ft | 492 kts | 161° |
| 2026-04-27 10:49 | 21.44495 | -100.56344 | 34588 ft | 491 kts | 160° |
| 2026-04-27 10:49 | 21.41342 | -100.54923 | 33868 ft | 495 kts | 160° |
| 2026-04-27 10:49 | 21.38141 | -100.53490 | 32866 ft | 501 kts | 160° |
| 2026-04-27 10:49 | 21.34927 | -100.52053 | 32062 ft | 501 kts | 160° |
| 2026-04-27 10:50 | 21.31718 | -100.50619 | 30913 ft | 499 kts | 160° |
| 2026-04-27 10:50 | 21.28528 | -100.49190 | 29861 ft | 492 kts | 160° |
| 2026-04-27 10:50 | 21.25436 | -100.47803 | 28702 ft | 484 kts | 160° |
| 2026-04-27 10:50 | 21.22356 | -100.46420 | 27600 ft | 476 kts | 160° |
| 2026-04-27 10:51 | 21.19315 | -100.45056 | 26470 ft | 477 kts | 160° |
| 2026-04-27 10:51 | 21.16228 | -100.43676 | 25270 ft | 485 kts | 160° |
| 2026-04-27 10:51 | 21.13096 | -100.42278 | 24105 ft | 491 kts | 159° |
| 2026-04-27 10:51 | 21.09927 | -100.40861 | 22867 ft | 496 kts | 159° |
| 2026-04-27 10:52 | 21.06750 | -100.39440 | 21946 ft | 491 kts | 159° |
| 2026-04-27 10:52 | 21.03623 | -100.38039 | 21003 ft | 486 kts | 159° |
| 2026-04-27 10:52 | 21.00544 | -100.36661 | 20547 ft | 471 kts | 159° |
| 2026-04-27 10:52 | 20.97633 | -100.35357 | 20424 ft | 450 kts | 159° |
| 2026-04-27 10:53 | 20.94811 | -100.34093 | 20295 ft | 431 kts | 159° |
| 2026-04-27 10:53 | 20.89481 | -100.31710 | 20059 ft | 400 kts | 159° |
| 2026-04-27 10:53 | 20.86948 | -100.30582 | 19992 ft | 389 kts | 159° |
| 2026-04-27 10:54 | 20.84468 | -100.29479 | 19654 ft | 383 kts | 159° |
| 2026-04-27 10:54 | 20.82018 | -100.28390 | 19264 ft | 380 kts | 158° |
| 2026-04-27 10:54 | 20.79592 | -100.27309 | 18873 ft | 376 kts | 158° |
| 2026-04-27 10:54 | 20.77219 | -100.26250 | 18497 ft | 373 kts | 158° |
| 2026-04-27 10:55 | 20.74836 | -100.25185 | 18061 ft | 370 kts | 158° |
| 2026-04-27 10:55 | 20.72472 | -100.24135 | 17621 ft | 366 kts | 158° |
| 2026-04-27 10:55 | 20.70129 | -100.23099 | 17189 ft | 363 kts | 158° |
| 2026-04-27 10:55 | 20.67800 | -100.22065 | 16720 ft | 361 kts | 158° |
| 2026-04-27 10:56 | 20.65491 | -100.21037 | 16232 ft | 359 kts | 158° |
| 2026-04-27 10:56 | 20.63258 | -100.19880 | 15769 ft | 356 kts | 148° |
| 2026-04-27 10:56 | 20.61339 | -100.18221 | 15306 ft | 355 kts | 134° |
| 2026-04-27 10:56 | 20.59872 | -100.16154 | 15138 ft | 344 kts | 122° |
| 2026-04-27 10:57 | 20.58649 | -100.14049 | 14984 ft | 334 kts | 122° |
| 2026-04-27 10:57 | 20.57399 | -100.11921 | 14223 ft | 345 kts | 122° |
| 2026-04-27 10:57 | 20.56107 | -100.09734 | 13286 ft | 349 kts | 122° |
| 2026-04-27 10:57 | 20.54814 | -100.07548 | 12339 ft | 348 kts | 122° |
| 2026-04-27 10:58 | 20.53524 | -100.05365 | 11418 ft | 347 kts | 123° |
| 2026-04-27 10:58 | 20.52493 | -100.03042 | 10550 ft | 350 kts | 103° |
| 2026-04-27 10:58 | 20.52475 | -100.00475 | 9642 ft | 348 kts | 75° |
| 2026-04-27 10:58 | 20.53589 | -99.98265 | 9112 ft | 332 kts | 44° |
| 2026-04-27 10:59 | 20.55417 | -99.96994 | 8743 ft | 311 kts | 15° |
| 2026-04-27 10:59 | 20.57488 | -99.96876 | 8381 ft | 292 kts | 343° |
| 2026-04-27 10:59 | 20.59192 | -99.97889 | 8054 ft | 277 kts | 311° |
| 2026-04-27 11:00 | 20.59706 | -100.01437 | 7766 ft | 237 kts | 242° |
| 2026-04-27 11:00 | 20.59003 | -100.02929 | 7785 ft | 217 kts | 256° |
| 2026-04-27 11:00 | 20.59018 | -100.04508 | 7994 ft | 214 kts | 288° |
| 2026-04-27 11:00 | 20.59410 | -100.06011 | 8442 ft | 207 kts | 282° |
| 2026-04-27 11:01 | 20.59660 | -100.07417 | 8656 ft | 185 kts | 277° |
| 2026-04-27 11:01 | 20.59846 | -100.08726 | 8662 ft | 174 kts | 278° |
| 2026-04-27 11:01 | 20.60044 | -100.09989 | 8479 ft | 170 kts | 279° |
| 2026-04-27 11:01 | 20.60300 | -100.11182 | 8129 ft | 161 kts | 284° |
| 2026-04-27 11:02 | 20.60576 | -100.12318 | 7851 ft | 158 kts | 284° |
| 2026-04-27 11:02 | 20.60845 | -100.13449 | 7688 ft | 157 kts | 284° |
| 2026-04-27 11:02 | 20.61027 | -100.14593 | 7474 ft | 156 kts | 275° |
| 2026-04-27 11:02 | 20.61200 | -100.15731 | 7175 ft | 155 kts | 282° |
| 2026-04-27 11:03 | 20.61419 | -100.16835 | 6832 ft | 152 kts | 281° |
| 2026-04-27 11:03 | 20.61621 | -100.17862 | 6632 ft | 117 kts | 278° |
| 2026-04-27 11:03 | 20.61708 | -100.18401 | 6626 ft | 40 kts | 282° |
| 2026-04-27 11:03 | 20.61783 | -100.18579 | 6625 ft | 22 kts | 324° |
| 2026-04-27 11:04 | 20.61847 | -100.18644 | 6628 ft | 6 kts | 324° |
| 2026-04-27 11:04 | 20.61872 | -100.18663 | 6629 ft | 3 kts | 325° |
| 2026-04-27 11:04 | 20.61882 | -100.18670 | 6630 ft | 1 kts | 326° |
| 2026-04-27 11:04 | 20.61929 | -100.18693 | 6633 ft | 12 kts | 341° |
| 2026-04-27 11:05 | 20.62004 | -100.18691 | 6634 ft | 10 kts | 11° |
| 2026-04-27 11:05 | 20.62075 | -100.18685 | 6635 ft | 10 kts | 351° |
| 2026-04-27 11:05 | 20.62133 | -100.18729 | 6636 ft | 11 kts | 340° |
| 2026-04-27 11:05 | 20.62199 | -100.18728 | 6636 ft | 0 kts | 19° |